createdAt,value
2022-09-18T00:01:24.681Z,9.32
2022-09-18T00:04:13.919Z,9.25
2022-09-18T00:07:01.006Z,9.43
2022-09-18T00:09:48.508Z,9.34
2022-09-18T00:12:34.756Z,9.42
2022-09-18T00:15:21.159Z,9.78
2022-09-18T00:18:08.925Z,9.15
2022-09-18T00:20:55.212Z,9.44
2022-09-18T00:23:42.721Z,9.55
2022-09-18T00:26:30.242Z,9.39
2022-09-18T00:29:17.545Z,9.55
2022-09-18T00:32:03.800Z,9.41
2022-09-18T00:34:50.315Z,9.43
2022-09-18T00:37:38.158Z,9.39
2022-09-18T00:40:24.459Z,9.37
2022-09-18T00:43:37.607Z,9.10
2022-09-18T00:46:29.934Z,9.13
2022-09-18T00:49:25.895Z,9.05
2022-09-18T00:52:14.535Z,9.27
2022-09-18T00:55:09.255Z,9.11
2022-09-18T00:57:57.173Z,9.24
2022-09-18T01:00:45.925Z,9.26
2022-09-18T01:03:32.969Z,9.10
2022-09-18T01:06:34.726Z,9.14
2022-09-18T01:09:33.004Z,9.21
2022-09-18T01:12:27.029Z,9.13
2022-09-18T01:15:31.191Z,9.11
2022-09-18T01:18:43.722Z,8.91
2022-09-18T01:21:30.606Z,8.89
2022-09-18T01:24:45.366Z,8.79
2022-09-18T01:28:10.774Z,8.89
2022-09-18T01:31:02.530Z,8.89
2022-09-18T01:33:53.183Z,8.84
2022-09-18T01:36:41.971Z,8.83
2022-09-18T01:39:37.835Z,8.73
2022-09-18T01:42:26.714Z,8.94
2022-09-18T01:45:16.928Z,8.78
2022-09-18T01:48:08.690Z,8.93
2022-09-18T01:51:04.925Z,8.63
2022-09-18T01:53:56.117Z,8.78
2022-09-18T01:56:49.094Z,8.65
2022-09-18T01:59:42.523Z,8.80
2022-09-18T02:02:48.054Z,8.64
2022-09-18T02:05:39.356Z,8.60
2022-09-18T02:08:38.718Z,8.57
2022-09-18T02:11:25.107Z,8.65
2022-09-18T02:14:15.585Z,8.64
2022-09-18T02:17:13.821Z,8.75
2022-09-18T02:20:05.638Z,8.49
2022-09-18T02:23:01.197Z,8.35
2022-09-18T02:25:53.311Z,8.49
2022-09-18T02:28:42.970Z,8.39
2022-09-18T02:31:29.638Z,8.33
2022-09-18T02:34:18.066Z,8.40
2022-09-18T02:37:24.696Z,8.26
2022-09-18T02:40:31.487Z,8.16
2022-09-18T02:43:28.868Z,8.38
2022-09-18T02:46:30.125Z,8.25
2022-09-18T02:49:28.771Z,8.00
2022-09-18T02:52:20.354Z,7.95
2022-09-18T02:55:16.534Z,7.94
2022-09-18T02:58:16.526Z,8.20
2022-09-18T03:01:05.555Z,8.13
2022-09-18T03:03:52.988Z,8.58
2022-09-18T03:06:40.939Z,8.54
2022-09-18T03:09:27.728Z,8.33
2022-09-18T03:12:15.047Z,8.41
2022-09-18T03:15:04.936Z,8.32
2022-09-18T03:17:51.774Z,8.33
2022-09-18T03:20:38.619Z,7.95
2022-09-18T03:23:25.025Z,8.22
2022-09-18T03:26:11.955Z,8.23
2022-09-18T03:28:58.389Z,8.37
2022-09-18T03:31:47.020Z,8.26
2022-09-18T03:34:33.184Z,8.32
2022-09-18T03:37:20.261Z,8.59
2022-09-18T03:40:07.469Z,8.50
2022-09-18T03:42:54.041Z,8.42
2022-09-18T03:45:43.046Z,8.49
2022-09-18T03:48:30.123Z,8.22
2022-09-18T03:51:19.057Z,8.22
2022-09-18T03:54:07.197Z,8.99
2022-09-18T03:56:54.223Z,8.30
2022-09-18T03:59:41.213Z,8.46
2022-09-18T04:02:30.983Z,7.98
2022-09-18T04:05:32.107Z,8.16
2022-09-18T04:08:30.804Z,7.99
2022-09-18T04:11:18.657Z,8.30
2022-09-18T04:14:05.055Z,8.11
2022-09-18T04:16:52.825Z,8.24
2022-09-18T04:19:39.590Z,8.27
2022-09-18T04:22:29.745Z,8.21
2022-09-18T04:25:16.897Z,8.19
2022-09-18T04:28:04.601Z,8.23
2022-09-18T04:30:52.438Z,8.72
2022-09-18T04:33:39.796Z,8.50
2022-09-18T04:36:26.201Z,8.53
2022-09-18T04:39:13.254Z,8.72
2022-09-18T04:42:02.621Z,8.70
2022-09-18T04:44:52.797Z,8.30
2022-09-18T04:47:41.354Z,8.60
2022-09-18T04:50:28.825Z,9.22
2022-09-18T04:53:21.827Z,8.35
2022-09-18T04:56:09.187Z,8.72
2022-09-18T04:58:55.493Z,8.94
2022-09-18T05:01:42.219Z,8.76
2022-09-18T05:04:28.971Z,8.86
2022-09-18T05:07:16.874Z,8.64
2022-09-18T05:10:05.114Z,8.89
2022-09-18T05:12:54.595Z,8.54
2022-09-18T05:15:52.804Z,8.81
2022-09-18T05:18:40.799Z,8.45
2022-09-18T05:21:32.908Z,8.85
2022-09-18T05:24:20.873Z,8.78
2022-09-18T05:27:22.426Z,8.85
2022-09-18T05:30:15.659Z,8.74
2022-09-18T05:33:07.727Z,8.87
2022-09-18T05:35:58.241Z,8.98
2022-09-18T05:38:45.695Z,8.99
2022-09-18T05:41:34.935Z,8.81
2022-09-18T05:44:23.589Z,9.00
2022-09-18T05:47:10.909Z,9.08
2022-09-18T05:50:10.454Z,9.24
2022-09-18T05:53:13.146Z,9.12
2022-09-18T05:56:04.333Z,9.67
2022-09-18T06:01:47.128Z,9.21
2022-09-18T06:04:35.608Z,9.54
2022-09-18T06:07:28.780Z,9.36
2022-09-18T06:10:27.657Z,9.74
2022-09-18T06:13:20.063Z,9.51
2022-09-18T06:16:15.744Z,9.57
2022-09-18T06:19:08.791Z,9.57
2022-09-18T06:22:01.645Z,9.91
2022-09-18T06:24:52.391Z,10.06
2022-09-18T06:27:53.660Z,10.15
2022-09-18T06:30:47.634Z,9.75
2022-09-18T06:33:36.345Z,10.20
2022-09-18T06:36:28.664Z,10.13
2022-09-18T06:39:29.094Z,10.23
2022-09-18T06:42:17.860Z,9.93
2022-09-18T06:45:13.228Z,10.15
2022-09-18T06:48:07.643Z,9.75
2022-09-18T06:51:00.196Z,10.32
2022-09-18T06:53:52.375Z,10.48
2022-09-18T06:56:49.635Z,10.52
2022-09-18T06:59:43.112Z,10.48
2022-09-18T07:02:32.514Z,10.37
2022-09-18T07:05:22.174Z,10.86
2022-09-18T07:08:10.018Z,10.74
2022-09-18T07:11:04.704Z,11.20
2022-09-18T07:14:00.811Z,10.99
2022-09-18T07:16:59.737Z,10.93
2022-09-18T07:19:57.788Z,11.06
2022-09-18T07:22:56.775Z,11.44
2022-09-18T07:25:48.119Z,11.22
2022-09-18T07:28:36.251Z,11.45
2022-09-18T07:31:50.594Z,11.18
2022-09-18T07:34:49.776Z,11.18
2022-09-18T07:37:53.862Z,11.03
2022-09-18T07:41:15.853Z,11.21
2022-09-18T07:44:15.105Z,11.24
2022-09-18T07:47:09.008Z,11.23
2022-09-18T07:50:00.619Z,11.24
2022-09-18T07:53:05.665Z,11.32
2022-09-18T07:59:28.177Z,11.62
2022-09-18T08:02:25.871Z,11.50
2022-09-18T08:05:32.684Z,11.79
2022-09-18T08:11:45.666Z,11.68
2022-09-18T08:14:43.127Z,11.36
2022-09-18T08:17:51.059Z,11.57
2022-09-18T08:20:46.643Z,11.74
2022-09-18T08:23:58.649Z,11.75
2022-09-18T08:26:56.500Z,11.62
2022-09-18T08:29:48.592Z,12.06
2022-09-18T08:32:42.829Z,12.06
2022-09-18T08:35:47.583Z,11.90
2022-09-18T08:38:42.833Z,11.76
2022-09-18T08:42:07.917Z,12.23
2022-09-18T08:45:33.589Z,12.34
2022-09-18T08:51:56.660Z,11.87
2022-09-18T08:55:04.547Z,11.84
2022-09-18T08:58:36.617Z,11.97
2022-09-18T09:02:35.577Z,11.68
2022-09-18T09:06:12.691Z,11.61
2022-09-18T09:12:40.609Z,11.50
2022-09-18T09:16:25.515Z,11.53
2022-09-18T09:23:06.553Z,11.55
2022-09-18T09:26:29.548Z,12.11
2022-09-18T09:29:43.630Z,12.05
2022-09-18T09:45:59.356Z,11.87
2022-09-18T09:52:26.862Z,11.97
2022-09-18T09:55:34.781Z,11.47
2022-09-18T09:58:47.619Z,11.65
2022-09-18T10:01:51.849Z,11.52
2022-09-18T10:04:53.628Z,11.55
2022-09-18T10:07:57.619Z,11.73
2022-09-18T10:17:24.941Z,11.71
2022-09-18T10:20:29.784Z,11.82
2022-09-18T10:23:39.934Z,12.34
2022-09-18T10:26:50.510Z,12.64
2022-09-18T10:29:57.287Z,12.69
2022-09-18T10:32:54.647Z,12.90
2022-09-18T10:36:07.730Z,13.01
2022-09-18T10:39:37.637Z,13.05
2022-09-18T10:45:39.631Z,12.77
2022-09-18T10:48:33.611Z,12.87
2022-09-18T10:51:30.651Z,12.87
2022-09-18T10:54:27.606Z,12.90
2022-09-18T11:04:18.118Z,12.94
2022-09-18T11:07:08.097Z,13.65
2022-09-18T11:10:15.859Z,13.74
2022-09-18T11:13:10.039Z,13.18
2022-09-18T11:19:28.148Z,12.94
2022-09-18T11:22:41.396Z,12.70
2022-09-18T11:25:37.768Z,12.85
2022-09-18T11:32:09.663Z,13.58
2022-09-18T11:35:02.084Z,13.46
2022-09-18T11:37:53.148Z,13.50
2022-09-18T11:40:45.092Z,13.39
2022-09-18T11:43:38.579Z,13.45
2022-09-18T11:46:34.307Z,14.18
2022-09-18T11:49:30.012Z,14.42
2022-09-18T11:52:31.307Z,13.95
2022-09-18T11:55:43.338Z,14.29
2022-09-18T11:58:44.192Z,14.46
2022-09-18T12:01:33.138Z,14.73
2022-09-18T12:04:40.266Z,15.02
2022-09-18T12:07:40.584Z,14.72
2022-09-18T12:10:45.237Z,14.44
2022-09-18T12:13:31.153Z,14.88
2022-09-18T12:16:29.068Z,15.61
2022-09-18T12:19:21.547Z,16.26
2022-09-18T12:22:18.839Z,16.29
2022-09-18T12:25:13.084Z,16.42
2022-09-18T12:28:00.706Z,15.35
2022-09-18T12:31:03.085Z,14.85
2022-09-18T12:34:01.418Z,14.71
2022-09-18T12:37:15.136Z,15.16
2022-09-18T12:40:34.123Z,14.70
2022-09-18T12:43:38.864Z,15.20
2022-09-18T12:47:00.825Z,15.66
2022-09-18T12:50:05.492Z,16.36
2022-09-18T12:53:11.720Z,15.74
2022-09-18T12:56:11.744Z,15.97
2022-09-18T12:59:15.752Z,16.75
2022-09-18T13:02:06.179Z,16.99
2022-09-18T13:05:00.742Z,16.36
2022-09-18T13:07:46.774Z,16.88
2022-09-18T13:10:42.729Z,16.26
2022-09-18T13:14:25.625Z,15.78
2022-09-18T13:17:24.197Z,15.33
2022-09-18T13:20:16.219Z,15.36
2022-09-18T13:23:03.151Z,15.06
2022-09-18T13:25:52.000Z,14.63
2022-09-18T13:28:41.959Z,14.88
2022-09-18T13:31:35.122Z,14.41
2022-09-18T13:34:22.834Z,14.35
2022-09-18T13:37:15.394Z,14.43
2022-09-18T13:40:10.572Z,14.60
2022-09-18T13:43:05.091Z,14.37
2022-09-18T13:45:51.424Z,13.46
2022-09-18T13:48:45.595Z,11.54
2022-09-18T13:51:37.564Z,11.69
2022-09-18T13:54:28.470Z,10.99
2022-09-18T13:57:19.448Z,10.85
2022-09-18T14:00:32.886Z,10.27
2022-09-18T14:03:19.402Z,10.30
2022-09-18T14:06:41.016Z,10.24
2022-09-18T14:09:52.842Z,10.42
2022-09-18T14:12:39.215Z,10.61
2022-09-18T14:15:25.914Z,11.39
2022-09-18T14:18:14.563Z,11.45
2022-09-18T14:21:14.874Z,10.88
2022-09-18T14:24:19.964Z,11.92
2022-09-18T14:27:28.053Z,12.68
2022-09-18T14:30:14.259Z,12.11
2022-09-18T14:33:04.032Z,11.74
2022-09-18T14:35:57.167Z,11.47
2022-09-18T14:38:46.325Z,11.12
2022-09-18T14:41:35.605Z,11.42
2022-09-18T14:44:24.617Z,11.19
2022-09-18T14:47:16.898Z,10.64
2022-09-18T14:50:03.894Z,10.89
2022-09-18T14:52:50.603Z,10.64
2022-09-18T14:55:39.790Z,10.93
2022-09-18T14:58:25.959Z,10.94
2022-09-18T15:01:16.429Z,11.61
2022-09-18T15:04:02.968Z,12.23
2022-09-18T15:06:49.934Z,12.53
2022-09-18T15:09:35.727Z,12.73
2022-09-18T15:12:24.474Z,12.59
2022-09-18T15:15:40.794Z,13.49
2022-09-18T15:18:29.179Z,13.28
2022-09-18T15:21:33.065Z,12.96
2022-09-18T15:24:20.005Z,12.29
2022-09-18T15:27:06.252Z,12.65
2022-09-18T15:30:00.858Z,12.48
2022-09-18T15:32:51.765Z,12.15
2022-09-18T15:35:37.979Z,11.67
2022-09-18T15:38:25.071Z,11.35
2022-09-18T15:41:36.450Z,11.32
2022-09-18T15:44:45.635Z,11.35
2022-09-18T15:47:39.272Z,11.53
2022-09-18T15:50:31.780Z,11.49
2022-09-18T15:53:19.920Z,11.83
2022-09-18T15:56:07.158Z,11.83
2022-09-18T15:58:58.310Z,11.69
2022-09-18T16:01:48.512Z,12.02
2022-09-18T16:04:35.419Z,12.06
2022-09-18T16:07:22.898Z,11.78
2022-09-18T16:10:29.657Z,11.69
2022-09-18T16:13:15.827Z,11.71
2022-09-18T16:16:08.068Z,11.64
2022-09-18T16:18:56.544Z,11.93
2022-09-18T16:21:43.379Z,11.57
2022-09-18T16:24:30.544Z,11.37
2022-09-18T16:27:18.124Z,11.26
2022-09-18T16:30:05.270Z,11.56
2022-09-18T16:33:02.302Z,11.47
2022-09-18T16:35:54.947Z,11.48
2022-09-18T16:38:40.997Z,11.08
2022-09-18T16:41:30.058Z,11.01
2022-09-18T16:44:18.300Z,10.83
2022-09-18T16:47:06.018Z,10.76
2022-09-18T16:49:53.456Z,11.14
2022-09-18T16:52:41.172Z,10.83
2022-09-18T16:55:28.669Z,11.73
2022-09-18T16:58:15.115Z,10.99
2022-09-18T17:01:01.512Z,10.91
2022-09-18T17:03:50.606Z,11.39
2022-09-18T17:06:40.578Z,11.42
2022-09-18T17:09:26.690Z,11.91
2022-09-18T17:12:14.268Z,12.40
2022-09-18T17:15:03.125Z,12.45
2022-09-18T17:17:49.558Z,12.78
2022-09-18T17:20:35.874Z,12.65
2022-09-18T17:23:22.471Z,13.03
2022-09-18T17:26:12.949Z,12.73
2022-09-18T17:29:00.592Z,12.89
2022-09-18T17:31:46.892Z,12.72
2022-09-18T17:34:33.998Z,13.03
2022-09-18T17:37:20.158Z,12.80
2022-09-18T17:40:07.097Z,12.69
2022-09-18T17:42:53.921Z,12.64
2022-09-18T17:45:43.518Z,13.00
2022-09-18T17:48:31.876Z,12.73
2022-09-18T17:51:20.129Z,12.79
2022-09-18T17:54:08.220Z,12.68
2022-09-18T17:56:55.748Z,13.03
2022-09-18T17:59:43.892Z,12.80
2022-09-18T18:02:31.691Z,13.00
2022-09-18T18:05:18.179Z,13.16
2022-09-18T18:08:07.280Z,12.75
2022-09-18T18:10:55.657Z,13.03
2022-09-18T18:13:43.867Z,12.34
2022-09-18T18:16:31.311Z,10.93
2022-09-18T18:19:18.885Z,11.73
2022-09-18T18:22:06.501Z,11.99
2022-09-18T18:24:52.825Z,12.47
2022-09-18T18:27:40.727Z,13.04
2022-09-18T18:30:28.280Z,11.88
2022-09-18T18:33:16.018Z,11.31
2022-09-18T18:36:09.079Z,11.15
2022-09-18T18:38:57.738Z,11.34
2022-09-18T18:41:44.992Z,11.06
2022-09-18T18:44:33.295Z,10.91
2022-09-18T18:47:20.184Z,10.79
2022-09-18T18:50:06.780Z,10.89
2022-09-18T18:52:52.935Z,10.13
2022-09-18T18:55:39.650Z,9.81
2022-09-18T18:58:26.724Z,9.76
2022-09-18T19:01:14.726Z,10.30
2022-09-18T19:04:02.119Z,10.76
2022-09-18T19:06:49.030Z,10.47
2022-09-18T19:09:35.288Z,10.71
2022-09-18T19:12:21.996Z,11.18
2022-09-18T19:15:08.017Z,11.36
2022-09-18T19:17:58.097Z,11.61
2022-09-18T19:20:45.439Z,11.73
2022-09-18T19:23:31.582Z,11.82
2022-09-18T19:26:17.697Z,12.22
2022-09-18T19:29:08.824Z,12.68
2022-09-18T19:31:55.344Z,12.42
2022-09-18T19:34:41.930Z,12.65
2022-09-18T19:37:28.624Z,12.66
2022-09-18T19:40:17.717Z,12.46
2022-09-18T19:43:06.657Z,12.90
2022-09-18T19:45:53.883Z,12.76
2022-09-18T19:48:41.116Z,12.64
2022-09-18T19:51:28.789Z,12.51
2022-09-18T19:54:14.771Z,12.96
2022-09-18T19:57:02.249Z,12.33
2022-09-18T19:59:52.638Z,12.05
2022-09-18T20:02:38.849Z,12.02
2022-09-18T20:05:24.962Z,11.58
2022-09-18T20:08:10.732Z,11.48
2022-09-18T20:10:56.801Z,12.26
2022-09-18T20:13:42.625Z,12.14
2022-09-18T20:16:29.600Z,12.35
2022-09-18T20:19:16.128Z,12.27
2022-09-18T20:22:02.987Z,11.60
2022-09-18T20:24:53.395Z,11.69
2022-09-18T20:27:41.104Z,11.77
2022-09-18T20:30:27.378Z,12.27
2022-09-18T20:33:13.644Z,12.30
2022-09-18T20:35:59.523Z,12.44
2022-09-18T20:38:46.055Z,12.21
2022-09-18T20:41:32.299Z,11.98
2022-09-18T20:44:19.060Z,11.83
2022-09-18T20:47:05.300Z,11.85
2022-09-18T20:49:52.641Z,11.82
2022-09-18T20:52:43.104Z,11.43
2022-09-18T20:55:29.472Z,12.17
2022-09-18T20:58:15.838Z,12.33
2022-09-18T21:01:08.429Z,11.60
2022-09-18T21:03:58.243Z,11.83
2022-09-18T21:06:45.533Z,11.86
2022-09-18T21:09:31.592Z,11.69
2022-09-18T21:12:17.380Z,10.78
2022-09-18T21:15:04.171Z,11.39
2022-09-18T21:17:51.343Z,10.86
2022-09-18T21:20:37.482Z,10.88
2022-09-18T21:23:42.934Z,11.22
2022-09-18T21:26:36.932Z,11.11
2022-09-18T21:29:26.081Z,11.35
2022-09-18T21:32:12.382Z,11.53
2022-09-18T21:35:03.434Z,11.37
2022-09-18T21:37:49.488Z,11.65
2022-09-18T21:40:36.521Z,11.34
2022-09-18T21:43:23.161Z,11.49
2022-09-18T21:46:11.256Z,11.54
2022-09-18T21:48:57.509Z,11.39
2022-09-18T21:51:43.965Z,11.66
2022-09-18T21:54:31.913Z,10.97
2022-09-18T21:57:18.253Z,11.10
2022-09-18T22:00:08.256Z,11.35
2022-09-18T22:02:59.374Z,11.15
2022-09-18T22:05:46.848Z,11.18
2022-09-18T22:08:32.891Z,11.23
2022-09-18T22:11:20.841Z,11.05
2022-09-18T22:14:19.138Z,11.12
2022-09-18T22:17:07.547Z,11.53
2022-09-18T22:19:53.450Z,11.20
2022-09-18T22:22:39.742Z,11.57
2022-09-18T22:25:25.531Z,11.67
2022-09-18T22:28:11.765Z,11.47
2022-09-18T22:30:58.084Z,11.83
2022-09-18T22:33:46.144Z,11.03
2022-09-18T22:36:32.838Z,11.19
2022-09-18T22:39:20.554Z,10.98
2022-09-18T22:42:06.966Z,10.98
2022-09-18T22:44:53.359Z,10.77
2022-09-18T22:47:39.109Z,11.31
2022-09-18T22:50:25.450Z,11.25
2022-09-18T22:53:11.681Z,10.93
2022-09-18T22:56:03.415Z,11.22
2022-09-18T22:58:49.723Z,11.10
2022-09-18T23:01:41.132Z,11.05
2022-09-18T23:04:29.308Z,10.97
2022-09-18T23:07:16.077Z,11.28
2022-09-18T23:10:01.895Z,11.31
2022-09-18T23:12:48.378Z,10.99
2022-09-18T23:15:36.730Z,11.24
2022-09-18T23:18:23.004Z,11.00
2022-09-18T23:21:14.241Z,11.19
2022-09-18T23:24:01.384Z,10.97
2022-09-18T23:26:49.213Z,11.16
2022-09-18T23:29:35.551Z,11.18
2022-09-18T23:32:21.875Z,11.34
2022-09-18T23:35:08.632Z,11.10
2022-09-18T23:37:54.974Z,11.22
2022-09-18T23:40:43.101Z,10.96
2022-09-18T23:43:29.324Z,11.22
2022-09-18T23:46:16.049Z,11.37
2022-09-18T23:49:02.199Z,11.26
2022-09-18T23:51:48.500Z,11.30
2022-09-18T23:54:34.671Z,11.24
2022-09-18T23:57:22.607Z,11.16
